Time;durP1;ratioP1;P1;durP2;ratioP2;P2;SDS_P1;SDS_P2;PMS_P1;PMS_P2;Temp;Humidity;BMP_temperature;BMP_pressure;BME280_temperature;BME280_humidity;BME280_pressure;Samples;Min_cycle;Max_cycle;Signal;HPM_P1;HPM_P2
2021/11/10 00:01:51;;;;;;;9.75;6.03;;;6.30;70.90;;;5.38;56.56;95865.22;5062403;28;20277;-81
2021/11/10 00:04:21;;;;;;;8.05;6.07;;;6.30;70.80;;;5.33;56.58;95854.41;5062814;28;20275;-80
2021/11/10 00:06:49;;;;;;;9.70;6.28;;;6.20;70.70;;;5.28;56.20;95858.25;5038711;28;20219;-79
2021/11/10 00:09:17;;;;;;;11.32;6.70;;;6.20;70.70;;;5.25;56.34;95857.69;5080336;28;20193;-81
2021/11/10 00:11:45;;;;;;;11.40;7.00;;;6.20;70.80;;;5.19;56.54;95860.81;5071252;28;20269;-81
2021/11/10 00:14:12;;;;;;;10.38;6.38;;;6.20;70.80;;;5.14;56.67;95856.03;5070179;28;20552;-81
2021/11/10 00:16:40;;;;;;;10.05;6.40;;;6.10;70.80;;;5.08;56.72;95862.59;5068669;28;20268;-80
2021/11/10 00:19:08;;;;;;;9.65;6.95;;;6.10;70.90;;;5.05;56.70;95854.22;5069307;28;20194;-81
2021/11/10 00:21:35;;;;;;;10.45;7.28;;;6.10;70.90;;;5.01;56.89;95852.88;5052640;28;20288;-81
2021/11/10 00:24:03;;;;;;;10.60;7.45;;;6.00;70.90;;;4.97;56.77;95853.13;5052655;28;20453;-81
2021/11/10 00:26:32;;;;;;;9.70;6.57;;;6.00;71.00;;;4.94;56.86;95849.97;5052505;28;20222;-81
2021/11/10 00:29:00;;;;;;;9.52;6.60;;;5.90;71.00;;;4.90;57.04;95853.78;5052361;28;20562;-81
2021/11/10 00:31:27;;;;;;;9.32;7.75;;;5.90;71.00;;;4.86;57.07;95860.19;5053320;28;20272;-81
2021/11/10 00:33:54;;;;;;;9.32;6.70;;;5.80;71.00;;;4.84;56.85;95862.13;5052370;28;20342;-81
2021/11/10 00:36:22;;;;;;;8.88;6.45;;;5.90;71.10;;;4.78;57.22;95856.47;5068005;28;20223;-81
2021/11/10 00:38:49;;;;;;;9.45;6.63;;;5.80;71.10;;;4.75;57.45;95848.97;5050270;28;20195;-81
2021/11/10 00:41:17;;;;;;;10.10;6.32;;;5.70;71.10;;;4.71;56.96;95850.19;5050981;28;20254;-81
2021/11/10 00:43:45;;;;;;;8.45;6.20;;;5.70;71.20;;;4.71;57.33;95849.34;5050002;28;20203;-80
2021/11/10 00:46:12;;;;;;;9.50;6.38;;;5.70;71.10;;;4.67;57.22;95850.59;5050668;28;20241;-80
2021/11/10 00:48:39;;;;;;;8.25;5.88;;;5.60;71.20;;;4.63;57.15;95853.44;5050580;28;20184;-81
2021/11/10 00:51:06;;;;;;;10.23;6.40;;;5.60;71.20;;;4.61;57.25;95859.72;5067827;28;20657;-80
2021/11/10 00:53:34;;;;;;;9.90;5.80;;;5.60;71.30;;;4.55;57.29;95852.44;5050433;28;20191;-81
2021/11/10 00:56:03;;;;;;;8.50;6.18;;;5.60;71.30;;;4.53;57.14;95857.78;5067735;28;20215;-82
2021/11/10 00:58:30;;;;;;;9.35;6.25;;;5.50;71.20;;;4.48;57.62;95849.56;5052073;28;20195;-82
2021/11/10 01:00:58;;;;;;;13.25;6.70;;;5.50;71.30;;;4.47;57.04;95853.91;5065012;28;20203;-80
2021/11/10 01:03:27;;;;;;;7.97;6.07;;;5.50;71.30;;;4.42;57.13;95855.25;5048980;28;20219;-81
2021/11/10 01:05:59;;;;;;;9.65;6.30;;;5.40;71.30;;;4.39;56.85;95856.34;5053412;28;20199;-81
2021/11/10 01:08:27;;;;;;;9.52;6.22;;;5.40;71.70;;;4.36;57.30;95854.03;5070397;28;20715;-80
2021/11/10 01:10:57;;;;;;;10.55;6.32;;;5.40;71.50;;;4.34;57.48;95855.91;5070327;28;20211;-80
2021/11/10 01:13:27;;;;;;;10.15;6.75;;;5.40;71.70;;;4.32;57.49;95852.63;5054487;28;20627;-81
2021/11/10 01:15:58;;;;;;;10.73;6.30;;;5.30;71.50;;;4.31;57.43;95858.78;5054972;28;20225;-81
2021/11/10 01:18:25;;;;;;;10.00;6.32;;;5.30;71.50;;;4.25;57.42;95841.94;5053955;28;20203;-80
2021/11/10 01:20:58;;;;;;;10.57;7.13;;;5.30;71.70;;;4.26;57.46;95846.19;5055089;28;20581;-81
2021/11/10 01:23:25;;;;;;;10.25;6.10;;;5.20;71.70;;;4.25;57.34;95847.13;5074387;28;20249;-81
2021/11/10 01:25:53;;;;;;;9.18;6.63;;;5.20;71.70;;;4.24;57.63;95850.66;5041531;28;20225;-81
2021/11/10 01:28:20;;;;;;;10.05;6.65;;;5.20;71.80;;;4.24;57.73;95850.66;5041010;28;20203;-82
2021/11/10 01:30:47;;;;;;;9.18;6.32;;;5.20;71.90;;;4.23;57.61;95850.81;5057872;28;20188;-81
2021/11/10 01:33:15;;;;;;;10.93;6.47;;;5.20;72.00;;;4.22;57.65;95851.75;5074351;28;20681;-81
2021/11/10 01:35:42;;;;;;;10.43;7.38;;;5.20;72.10;;;4.20;58.43;95846.69;5057741;28;20196;-81
2021/11/10 01:38:11;;;;;;;11.60;7.00;;;5.20;72.30;;;4.23;57.64;95856.00;5072749;28;20195;-81
2021/11/10 01:40:39;;;;;;;10.57;7.00;;;5.20;72.30;;;4.18;57.96;95842.59;5074241;28;20199;-81
2021/11/10 01:43:14;;;;;;;11.30;6.93;;;5.20;72.50;;;4.18;57.81;95842.59;5074091;28;20231;-81
2021/11/10 01:45:46;;;;;;;9.80;6.88;;;5.20;72.60;;;4.21;57.64;95847.50;5075295;28;20206;-80
2021/11/10 01:48:16;;;;;;;10.20;6.78;;;5.20;72.50;;;4.21;57.49;95850.94;5058085;28;20252;-80
2021/11/10 01:50:44;;;;;;;9.52;6.43;;;5.10;72.50;;;4.18;57.84;95847.78;5057216;28;20248;-81
2021/11/10 01:53:13;;;;;;;10.40;6.53;;;5.10;72.50;;;4.18;57.41;95850.38;5057260;28;20195;-81
2021/11/10 01:55:43;;;;;;;10.20;6.28;;;5.20;72.50;;;4.13;57.84;95848.16;5057619;28;20207;-81
2021/11/10 01:58:11;;;;;;;8.90;6.45;;;5.10;72.40;;;4.11;57.78;95855.25;5056612;28;20191;-81
2021/11/10 02:00:43;;;;;;;10.55;7.07;;;5.10;72.40;;;4.05;57.70;95841.00;5057335;28;20229;-81
2021/11/10 02:03:14;;;;;;;9.73;6.55;;;5.10;72.50;;;4.05;57.68;95842.78;5057766;28;20728;-81
2021/11/10 02:05:46;;;;;;;9.55;6.80;;;5.10;72.40;;;4.04;57.95;95841.13;5058171;28;20199;-81
2021/11/10 02:08:42;;;;;;;11.02;7.38;;;5.10;72.50;;;3.99;58.08;95846.69;5044638;28;20604;-80
2021/11/10 02:11:19;;;;;;;9.05;6.63;;;5.00;72.40;;;3.97;57.95;95841.66;5058122;28;20242;-81
2021/11/10 02:13:55;;;;;;;10.85;7.00;;;5.00;72.30;;;3.91;58.15;95828.38;5058703;28;20256;-81
2021/11/10 02:16:22;;;;;;;10.68;6.88;;;4.90;72.30;;;3.93;58.06;95829.88;5056591;28;20226;-80
2021/11/10 02:18:51;;;;;;;10.38;7.18;;;4.90;72.30;;;3.93;58.33;95831.63;5056815;28;20206;-82
2021/11/10 02:21:24;;;;;;;11.80;7.32;;;4.90;72.30;;;3.94;58.36;95839.31;5073607;28;20226;-79
2021/11/10 02:23:52;;;;;;;9.52;7.20;;;4.90;72.30;;;3.94;58.29;95841.06;5072232;28;20217;-79
2021/11/10 02:26:25;;;;;;;11.00;7.45;;;4.90;72.30;;;3.92;58.47;95833.44;5057100;28;20211;-78
2021/11/10 02:28:52;;;;;;;11.85;7.55;;;4.90;72.30;;;3.94;58.14;95828.94;5056645;28;20305;-82
2021/11/10 02:31:19;;;;;;;12.93;8.20;;;4.90;72.30;;;3.92;58.36;95830.84;5055476;28;20222;-82
2021/11/10 02:33:47;;;;;;;10.98;7.47;;;4.90;72.30;;;3.91;57.99;95829.19;5039696;28;20560;-81
2021/11/10 02:36:14;;;;;;;10.57;7.13;;;4.80;72.20;;;3.90;58.12;95842.28;5073433;28;20742;-81
2021/11/10 02:38:42;;;;;;;11.45;7.50;;;4.80;72.20;;;3.84;58.16;95836.66;5070838;28;20195;-82
2021/11/10 02:41:10;;;;;;;10.77;7.35;;;4.80;72.20;;;3.81;58.30;95826.53;5073273;28;20225;-82
2021/11/10 02:43:37;;;;;;;12.13;7.90;;;4.80;72.20;;;3.75;58.18;95810.63;5073167;28;20306;-82
2021/11/10 02:46:04;;;;;;;12.13;7.57;;;4.80;72.20;;;3.73;58.29;95823.75;5072893;28;20227;-81
2021/11/10 02:48:32;;;;;;;11.48;7.43;;;4.70;72.20;;;3.69;58.23;95819.75;5072010;28;20210;-82
2021/11/10 02:50:59;;;;;;;10.55;7.05;;;4.70;72.20;;;3.67;58.06;95825.09;5053413;28;20645;-81
2021/11/10 02:53:33;;;;;;;11.07;7.85;;;4.70;72.20;;;3.63;58.42;95815.09;5054452;28;20569;-82
2021/11/10 02:56:00;;;;;;;11.77;7.72;;;4.60;72.60;;;3.57;58.03;95800.84;5054104;28;20276;-81
2021/11/10 02:58:32;;;;;;;12.32;8.18;;;4.60;72.10;;;3.56;58.35;95803.56;5063249;28;20541;-82
2021/11/10 03:01:03;;;;;;;10.20;7.15;;;4.60;72.80;;;3.56;58.42;95809.56;5069057;28;20188;-81
2021/11/10 03:03:31;;;;;;;10.93;7.60;;;4.60;72.10;;;3.56;58.52;95819.94;5066383;28;20219;-82
2021/11/10 03:06:00;;;;;;;12.93;8.73;;;4.60;72.30;;;3.55;58.73;95820.88;5056714;28;20187;-81
2021/11/10 03:08:30;;;;;;;12.52;8.45;;;4.60;72.60;;;3.55;58.75;95823.47;5056127;28;20238;-82
2021/11/10 03:11:06;;;;;;;11.02;7.72;;;4.50;72.60;;;3.53;58.78;95828.78;5070842;28;20268;-82
2021/11/10 03:13:33;;;;;;;14.32;8.80;;;4.50;72.60;;;3.56;59.16;95829.50;5062140;28;20207;-82
2021/11/10 03:16:00;;;;;;;13.57;8.35;;;4.50;72.70;;;3.51;58.75;95820.31;5066495;28;20250;-81
2021/11/10 03:18:28;;;;;;;13.48;8.57;;;4.50;72.80;;;3.55;59.04;95820.06;5064664;28;20224;-82
2021/11/10 03:20:56;;;;;;;12.75;8.15;;;4.50;72.80;;;3.51;58.78;95820.31;5052172;28;20233;-81
2021/11/10 03:23:23;;;;;;;13.85;8.38;;;4.50;72.80;;;3.47;58.87;95810.34;5071700;28;20215;-81
2021/11/10 03:25:53;;;;;;;13.50;8.02;;;4.50;72.80;;;3.43;58.56;95807.16;5071356;28;20199;-81
2021/11/10 03:28:25;;;;;;;13.27;8.40;;;4.50;72.80;;;3.40;58.70;95812.59;5048024;28;20204;-82
2021/11/10 03:30:52;;;;;;;13.45;8.27;;;4.40;72.70;;;3.35;59.27;95810.38;5052089;28;20198;-80
2021/11/10 03:33:19;;;;;;;11.95;8.20;;;4.40;72.70;;;3.38;58.74;95817.06;5067313;28;20199;-82
2021/11/10 03:35:47;;;;;;;12.77;8.70;;;4.40;72.80;;;3.32;58.80;95810.63;5058063;28;20287;-82
2021/11/10 03:38:18;;;;;;;12.35;8.18;;;4.40;73.70;;;3.30;58.72;95807.31;5050669;28;20231;-81
2021/11/10 03:40:49;;;;;;;13.57;8.60;;;4.30;72.70;;;3.27;58.76;95807.59;5055340;28;20227;-80
2021/11/10 03:43:20;;;;;;;12.52;8.20;;;4.30;72.70;;;3.23;59.04;95807.97;5068476;28;20754;-82
2021/11/10 03:45:47;;;;;;;12.20;8.40;;;4.30;72.70;;;3.16;59.12;95794.66;5048108;28;20202;-82
2021/11/10 03:48:14;;;;;;;12.98;8.27;;;4.30;72.80;;;3.17;58.98;95802.31;5067114;28;20678;-82
2021/11/10 03:50:44;;;;;;;16.02;8.57;;;4.20;73.60;;;3.14;59.23;95799.97;5035352;28;20192;-82
2021/11/10 03:53:12;;;;;;;14.50;8.38;;;4.20;72.80;;;3.14;59.01;95801.75;5052849;28;20195;-82
2021/11/10 03:55:40;;;;;;;11.68;7.55;;;4.20;72.80;;;3.11;58.99;95799.41;5036416;28;20241;-80
2021/11/10 03:58:11;;;;;;;12.48;8.30;;;4.20;72.90;;;3.03;59.12;95794.84;5051151;28;20573;-82
2021/11/10 04:00:45;;;;;;;12.23;8.48;;;4.10;73.00;;;3.07;59.07;95803.19;5071396;28;20203;-81
2021/11/10 04:03:13;;;;;;;12.60;8.45;;;4.20;73.10;;;3.04;59.24;95801.66;5065946;28;20216;-81
2021/11/10 04:05:42;;;;;;;12.48;8.52;;;4.10;73.00;;;3.04;58.95;95801.66;5069174;28;20191;-80
2021/11/10 04:08:10;;;;;;;13.32;8.90;;;4.10;73.10;;;3.03;58.86;95803.41;5070698;28;20206;-81
2021/11/10 04:10:38;;;;;;;12.30;8.43;;;4.10;73.20;;;3.03;59.50;95797.44;5053521;28;20199;-82
2021/11/10 04:13:07;;;;;;;15.93;9.18;;;4.00;73.10;;;3.03;59.16;95803.41;5052554;28;20731;-81
2021/11/10 04:15:40;;;;;;;13.55;8.60;;;4.00;73.30;;;2.99;59.43;95796.00;5053509;28;20253;-82
2021/11/10 04:18:08;;;;;;;12.95;9.00;;;4.00;73.20;;;3.03;59.36;95810.38;5052813;28;20210;-81
2021/11/10 04:20:36;;;;;;;14.00;8.63;;;4.10;73.30;;;3.01;59.27;95801.91;5067599;28;20210;-80
2021/11/10 04:23:04;;;;;;;13.90;9.20;;;4.00;73.30;;;3.01;59.16;95812.25;5051414;28;20483;-82
2021/11/10 04:25:31;;;;;;;13.55;9.32;;;4.00;73.30;;;2.99;59.51;95811.56;5050526;28;20259;-81
2021/11/10 04:27:58;;;;;;;14.93;9.40;;;4.00;73.40;;;2.99;59.26;95812.41;5062174;28;20219;-81
2021/11/10 04:30:31;;;;;;;18.13;9.95;;;4.00;73.40;;;2.97;59.50;95805.69;5037500;28;20195;-80
2021/11/10 04:33:00;;;;;;;15.00;9.73;;;4.00;73.40;;;2.99;59.40;95806.38;5052299;28;20229;-80
2021/11/10 04:35:27;;;;;;;15.18;9.25;;;4.00;73.40;;;2.99;59.48;95811.56;5036169;28;20812;-80
2021/11/10 04:37:55;;;;;;;16.27;9.68;;;4.00;73.40;;;2.95;59.52;95800.63;5051819;28;20215;-80
2021/11/10 04:40:25;;;;;;;16.08;10.48;;;4.00;73.50;;;2.99;59.50;95799.44;5052581;28;20206;-79
2021/11/10 04:42:53;;;;;;;13.98;9.05;;;4.00;73.50;;;3.01;59.54;95800.13;5032037;28;20439;-79
2021/11/10 04:45:32;;;;;;;15.57;9.95;;;4.00;74.60;;;2.99;59.56;95796.00;5049256;28;20208;-80
2021/11/10 04:48:00;;;;;;;14.20;9.30;;;4.00;73.80;;;3.02;59.73;95806.16;5049771;28;20216;-79
2021/11/10 04:50:28;;;;;;;15.02;9.60;;;4.00;73.80;;;3.03;59.39;95810.38;5066329;28;20188;-80
2021/11/10 04:52:55;;;;;;;17.70;9.88;;;4.00;73.80;;;3.03;59.69;95811.19;5051000;28;20212;-80
2021/11/10 04:55:25;;;;;;;18.65;10.40;;;4.00;73.90;;;3.05;59.51;95805.88;5055059;28;20254;-80
2021/11/10 04:57:52;;;;;;;17.77;10.95;;;4.00;73.90;;;3.06;59.77;95804.13;5068384;28;20219;-81
2021/11/10 05:00:20;;;;;;;15.25;10.77;;;4.00;73.90;;;3.07;59.63;95801.41;5075129;28;20192;-81
2021/11/10 05:02:51;;;;;;;17.15;10.80;;;4.00;73.80;;;3.07;59.69;95803.19;5075418;28;20223;-81
2021/11/10 05:05:21;;;;;;;16.65;10.13;;;4.00;73.90;;;3.07;59.59;95796.22;5058127;28;20203;-80
2021/11/10 05:07:50;;;;;;;16.23;11.18;;;4.00;73.90;;;3.07;59.82;95795.41;5057705;28;20227;-81
2021/11/10 05:10:18;;;;;;;18.60;10.93;;;4.00;74.00;;;3.08;59.93;95792.69;5057750;28;20262;-81
2021/11/10 05:12:50;;;;;;;16.98;10.88;;;4.10;74.10;;;3.09;59.63;95790.91;5075545;28;20584;-81
2021/11/10 05:15:18;;;;;;;16.50;11.07;;;4.10;74.00;;;3.10;59.95;95790.81;5074206;28;20202;-81
2021/11/10 05:17:45;;;;;;;17.73;11.68;;;4.00;73.90;;;3.09;59.74;95794.34;5074666;28;20216;-81
2021/11/10 05:20:18;;;;;;;17.45;11.40;;;4.00;74.00;;;3.12;59.97;95793.28;5074225;28;20718;-80
2021/11/10 05:22:47;;;;;;;18.33;11.27;;;4.10;74.10;;;3.08;60.05;95782.31;5041884;28;20261;-81
2021/11/10 05:25:14;;;;;;;18.02;11.20;;;4.10;74.10;;;3.14;60.17;95787.00;5056853;28;20192;-79
2021/11/10 05:27:41;;;;;;;17.85;11.20;;;4.10;74.20;;;3.16;60.18;95792.06;5054366;28;20220;-80
2021/11/10 05:30:10;;;;;;;21.50;12.35;;;4.10;74.30;;;3.16;60.19;95789.47;5054390;28;20246;-80
2021/11/10 05:32:40;;;;;;;20.08;12.73;;;4.10;74.30;;;3.17;60.33;95791.97;5037940;28;20591;-80
2021/11/10 05:35:09;;;;;;;18.58;12.52;;;4.10;74.30;;;3.20;60.11;95788.28;5068511;28;20751;-80
2021/11/10 05:37:37;;;;;;;17.55;11.68;;;4.10;74.40;;;3.27;60.07;95794.63;5058045;28;20647;-80
2021/11/10 05:40:09;;;;;;;16.23;11.02;;;4.10;74.50;;;3.31;60.20;95787.44;5057739;28;20275;-81
2021/11/10 05:42:37;;;;;;;18.35;11.70;;;4.20;74.70;;;3.36;60.35;95791.28;5058069;28;20590;-80
2021/11/10 05:45:06;;;;;;;19.13;12.48;;;4.20;74.80;;;3.44;60.42;95795.84;5052437;28;20192;-80
2021/11/10 05:47:33;;;;;;;17.90;12.10;;;4.20;75.00;;;3.47;60.37;95782.63;5068426;28;20245;-80
2021/11/10 05:50:04;;;;;;;18.00;11.73;;;4.30;75.00;;;3.62;60.41;95803.88;5035916;28;20206;-81
2021/11/10 05:52:31;;;;;;;18.30;12.15;;;4.30;75.10;;;3.64;60.52;95793.38;5067330;28;20269;-80
2021/11/10 05:54:59;;;;;;;17.90;12.20;;;4.40;75.10;;;3.75;60.42;95805.44;5072197;28;20219;-80
2021/11/10 05:57:27;;;;;;;21.30;13.15;;;4.40;75.10;;;3.79;60.34;95796.47;5048380;28;20265;-81
2021/11/10 05:59:54;;;;;;;24.02;14.90;;;4.50;75.20;;;3.86;60.32;95797.59;5071740;28;20191;-80
2021/11/10 06:02:21;;;;;;;71.90;45.40;;;4.60;75.20;;;3.93;60.73;95800.50;5071323;28;20219;-80
2021/11/10 06:04:49;;;;;;;40.40;28.73;;;4.60;75.20;;;3.99;60.51;95802.56;5062069;28;20574;-81
2021/11/10 06:07:16;;;;;;;32.88;21.77;;;4.70;75.20;;;4.03;60.63;95795.34;5051668;28;20631;-80
2021/11/10 06:09:46;;;;;;;23.60;17.55;;;4.80;75.30;;;4.07;60.80;95794.16;5048716;28;20199;-80
2021/11/10 06:12:14;;;;;;;21.48;15.45;;;4.80;75.30;;;4.13;60.73;95794.44;5087845;28;20230;-80
2021/11/10 06:14:41;;;;;;;22.60;15.05;;;4.80;76.10;;;4.16;60.75;95794.22;5054398;28;20192;-81
2021/11/10 06:17:08;;;;;;;20.02;13.93;;;4.90;75.40;;;4.20;60.65;95794.78;5056704;28;20253;-80
2021/11/10 06:19:36;;;;;;;21.15;13.27;;;5.00;75.50;;;4.29;60.64;95806.16;5054476;28;20226;-81
2021/11/10 06:22:04;;;;;;;18.40;13.48;;;5.00;75.50;;;4.37;60.67;95805.47;5069308;28;20208;-81
2021/11/10 06:24:32;;;;;;;22.63;14.43;;;5.00;76.30;;;4.40;60.78;95803.44;5072892;28;20219;-81
2021/11/10 06:26:59;;;;;;;23.75;15.40;;;5.10;75.70;;;4.52;61.22;95809.38;5071825;28;20219;-80
2021/11/10 06:29:26;;;;;;;22.83;15.95;;;5.10;75.70;;;4.61;61.17;95816.38;5072853;28;20196;-81
2021/11/10 06:31:53;;;;;;;22.50;15.75;;;5.30;75.90;;;4.66;60.93;95805.56;5056055;28;20689;-81
2021/11/10 06:34:21;;;;;;;21.88;15.43;;;5.20;75.90;;;4.80;60.73;95810.41;5072034;28;20275;-80
2021/11/10 06:36:48;;;;;;;20.60;14.40;;;5.30;76.00;;;4.88;61.48;95814.09;5055818;28;20285;-81
2021/11/10 06:39:16;;;;;;;20.77;15.57;;;5.40;76.00;;;4.99;61.00;95815.78;5071755;28;20209;-81
2021/11/10 06:41:44;;;;;;;22.73;15.18;;;5.50;76.10;;;5.08;60.92;95822.78;5070556;28;20223;-80
2021/11/10 06:44:12;;;;;;;19.95;14.80;;;5.60;76.20;;;5.17;61.02;95828.94;5084745;28;20215;-80
2021/11/10 06:46:39;;;;;;;20.67;14.93;;;5.60;76.20;;;5.23;61.18;95826.59;5071228;28;20704;-77
2021/11/10 06:49:06;;;;;;;23.13;14.25;;;5.70;76.20;;;5.29;61.05;95823.47;5050462;28;20195;-79
2021/11/10 06:51:34;;;;;;;21.92;14.68;;;5.80;76.30;;;5.36;61.27;95821.16;5051224;28;20262;-79
2021/11/10 06:54:01;;;;;;;22.27;14.77;;;5.90;76.20;;;5.39;61.27;95820.03;5061852;28;20225;-79
2021/11/10 06:56:28;;;;;;;21.88;14.18;;;5.90;76.20;;;5.52;61.44;95828.41;5054806;28;20223;-79
2021/11/10 06:58:55;;;;;;;20.45;14.38;;;6.00;76.20;;;5.59;61.35;95833.84;5055652;28;20614;-79
2021/11/10 07:01:23;;;;;;;19.77;13.70;;;6.10;76.30;;;5.65;60.76;95828.13;5039760;28;20701;-78
2021/11/10 07:03:50;;;;;;;20.45;12.93;;;6.20;76.30;;;5.72;61.29;95833.59;5039201;28;20226;-81
2021/11/10 07:06:17;;;;;;;16.77;12.80;;;6.20;76.30;;;5.77;61.31;95831.38;5072466;28;20211;-78
2021/11/10 07:08:44;;;;;;;20.80;13.55;;;6.30;76.30;;;5.86;61.23;95832.31;5056004;28;20197;-82
2021/11/10 07:11:12;;;;;;;19.08;13.43;;;6.40;76.40;;;5.92;61.08;95832.59;5072409;28;20223;-80
2021/11/10 07:13:39;;;;;;;18.75;13.35;;;6.40;76.40;;;5.99;61.18;95835.47;5055550;28;20290;-80
2021/11/10 07:16:06;;;;;;;17.50;11.93;;;6.40;76.30;;;6.02;61.43;95834.41;5038908;28;20219;-80
2021/11/10 07:18:33;;;;;;;19.48;13.55;;;6.50;76.30;;;6.09;61.06;95833.69;5055800;28;20198;-80
2021/11/10 07:21:01;;;;;;;19.20;12.95;;;6.60;76.40;;;6.09;61.20;95822.44;5038942;28;20204;-81
2021/11/10 07:23:28;;;;;;;20.63;12.73;;;6.60;76.30;;;6.18;61.22;95829.41;5039208;28;20250;-81
2021/11/10 07:25:55;;;;;;;18.35;12.50;;;6.70;76.30;;;6.25;61.49;95838.31;5055293;28;20219;-81
2021/11/10 07:28:22;;;;;;;17.98;12.27;;;6.70;76.30;;;6.29;61.31;95825.00;5055594;28;20226;-81
2021/11/10 07:30:51;;;;;;;20.65;13.02;;;6.80;76.40;;;6.34;61.63;95833.22;5055094;28;20191;-80
2021/11/10 07:33:18;;;;;;;21.52;14.15;;;6.80;76.40;;;6.40;61.40;95824.81;5072143;28;20719;-81
2021/11/10 07:35:46;;;;;;;20.02;12.93;;;6.90;76.50;;;6.46;61.34;95828.63;5055416;28;20195;-81
2021/11/10 07:38:23;;;;;;;17.63;13.00;;;6.90;76.40;;;6.52;61.35;95833.28;5072111;28;20195;-81
2021/11/10 07:40:53;;;;;;;20.27;13.75;;;7.00;76.40;;;6.57;61.44;95831.88;5069433;28;20211;-81
2021/11/10 07:43:24;;;;;;;17.77;12.85;;;7.10;76.40;;;6.59;61.40;95826.50;5052027;28;20228;-81
2021/11/10 07:45:57;;;;;;;21.60;14.73;;;7.10;76.60;;;6.65;61.37;95836.38;5052041;28;20196;-82
2021/11/10 07:48:24;;;;;;;20.00;14.43;;;7.10;76.40;;;6.69;61.55;95835.13;5052197;28;20200;-82
2021/11/10 07:50:51;;;;;;;19.00;14.38;;;7.20;76.40;;;6.75;61.41;95831.13;5068077;28;20558;-82
2021/11/10 07:53:19;;;;;;;17.60;12.82;;;7.30;76.50;;;6.80;61.63;95836.72;5047039;28;20207;-82
2021/11/10 07:55:46;;;;;;;18.38;13.82;;;7.30;76.40;;;6.87;61.57;95829.13;5054941;28;20211;-81
2021/11/10 07:58:13;;;;;;;18.73;13.63;;;7.30;76.40;;;6.86;61.46;95817.88;5072487;28;20191;-81
2021/11/10 08:00:41;;;;;;;17.75;13.45;;;7.40;76.50;;;6.99;61.43;95829.75;5071216;28;20589;-81
2021/11/10 08:03:09;;;;;;;18.00;13.73;;;7.50;76.50;;;6.98;61.44;95818.50;5071496;28;20203;-81
2021/11/10 08:05:37;;;;;;;17.40;13.60;;;7.50;76.40;;;7.07;61.24;95826.41;5071470;28;20333;-81
2021/11/10 08:08:04;;;;;;;16.10;12.63;;;7.60;76.50;;;7.17;61.33;95829.78;5088224;28;20223;-82
2021/11/10 08:10:55;;;;;;;16.48;12.18;;;7.60;76.40;;;7.24;61.33;95833.44;5071009;28;20284;-82
2021/11/10 08:13:23;;;;;;;18.83;12.45;;;7.70;76.50;;;7.31;61.58;95834.50;5067363;28;20214;-82
2021/11/10 08:15:53;;;;;;;17.95;12.15;;;7.70;76.40;;;7.37;61.36;95830.44;5051355;28;20192;-82
2021/11/10 08:18:21;;;;;;;16.35;12.98;;;7.80;76.50;;;7.42;61.44;95835.22;5034752;28;20633;-81
2021/11/10 08:20:49;;;;;;;15.68;12.07;;;7.80;76.40;;;7.50;61.44;95841.34;5042340;28;20548;-81
2021/11/10 08:23:25;;;;;;;16.63;12.18;;;7.90;76.50;;;7.58;61.17;95843.22;5087313;28;20753;-81
2021/11/10 08:25:56;;;;;;;16.92;12.30;;;8.00;76.60;;;7.67;61.25;95847.53;5056158;28;20206;-81
2021/11/10 08:28:25;;;;;;;16.10;12.25;;;8.00;76.60;;;7.73;61.26;95840.88;5053998;28;20187;-82
2021/11/10 08:30:53;;;;;;;18.80;13.63;;;8.10;76.60;;;7.79;61.19;95842.09;5070653;28;20645;-81
2021/11/10 08:33:25;;;;;;;17.25;13.77;;;8.20;76.60;;;7.89;61.01;95842.00;5055249;28;20192;-81
2021/11/10 08:35:52;;;;;;;18.45;14.02;;;8.20;76.50;;;7.96;61.22;95840.41;5070874;28;20187;-81
2021/11/10 08:38:20;;;;;;;18.60;13.38;;;8.30;76.60;;;8.03;61.11;95841.41;5054590;28;20199;-81
2021/11/10 08:40:47;;;;;;;17.00;13.85;;;8.40;76.60;;;8.11;61.03;95836.25;5054226;28;20219;-81
2021/11/10 08:43:14;;;;;;;18.55;14.45;;;8.40;77.40;;;8.18;61.33;95832.06;5033498;28;20741;-79
2021/11/10 08:45:46;;;;;;;15.65;12.02;;;8.60;76.60;;;8.29;61.10;95836.22;5067029;28;20278;-78
2021/11/10 08:48:13;;;;;;;20.50;13.52;;;8.60;76.60;;;8.37;60.88;95832.81;5071110;28;20184;-82
2021/11/10 08:50:44;;;;;;;17.42;12.25;;;8.70;76.60;;;8.50;61.15;95840.28;5033755;28;20277;-79
2021/11/10 08:53:18;;;;;;;22.73;14.40;;;8.70;76.60;;;8.59;60.91;95841.97;5046131;28;20223;-82
2021/11/10 08:55:47;;;;;;;17.58;13.65;;;8.90;76.70;;;8.68;60.56;95845.44;5087370;28;20195;-82
2021/11/10 08:58:16;;;;;;;17.73;13.75;;;8.90;76.50;;;8.73;60.44;95848.38;5037760;28;20295;-79
2021/11/10 09:00:44;;;;;;;18.77;13.35;;;9.20;76.50;;;8.80;60.56;95844.19;5070126;28;20219;-81
2021/11/10 09:03:11;;;;;;;17.00;13.57;;;9.10;76.30;;;8.85;60.33;95846.31;5054664;28;20549;-82
2021/11/10 09:05:39;;;;;;;19.80;13.10;;;9.10;76.10;;;8.91;60.21;95840.47;5053694;28;20227;-79
2021/11/10 09:08:07;;;;;;;19.90;12.70;;;9.20;76.10;;;8.98;60.42;95851.09;5070593;28;20250;-81
2021/11/10 09:10:34;;;;;;;16.70;12.80;;;9.30;76.10;;;8.99;60.43;95849.31;5070373;28;20231;-81
2021/11/10 09:13:03;;;;;;;16.02;13.20;;;9.30;76.00;;;9.06;60.00;95845.91;5066409;28;20315;-81
2021/11/10 09:15:33;;;;;;;16.85;12.70;;;9.40;75.90;;;9.13;59.99;95846.09;5045169;28;20226;-81
2021/11/10 09:18:04;;;;;;;17.58;12.68;;;9.40;76.70;;;9.18;60.21;95843.81;5033759;28;20318;-81
2021/11/10 09:20:34;;;;;;;16.45;12.25;;;9.50;75.80;;;9.22;60.14;95836.47;5044328;28;20199;-80
2021/11/10 09:23:04;;;;;;;18.40;12.52;;;9.50;75.70;;;9.26;59.84;95840.38;5050628;28;20220;-81
2021/11/10 09:25:35;;;;;;;16.10;12.50;;;9.60;75.50;;;9.27;59.82;95827.13;5034385;28;20216;-82
2021/11/10 09:28:08;;;;;;;19.17;14.43;;;9.60;75.50;;;9.24;59.74;95826.63;5050690;28;20291;-82
2021/11/10 09:30:41;;;;;;;18.08;13.13;;;9.60;75.50;;;9.23;59.84;95833.66;5033979;28;20683;-82
2021/11/10 09:33:11;;;;;;;16.88;12.57;;;9.70;75.60;;;9.24;59.80;95837.94;5048812;28;20188;-82
2021/11/10 09:35:40;;;;;;;17.35;12.05;;;9.60;75.50;;;9.26;59.74;95835.97;5036877;28;20204;-82
2021/11/10 09:38:09;;;;;;;16.63;12.30;;;9.70;75.60;;;9.31;60.07;95829.44;5070603;28;20191;-82
2021/11/10 09:40:39;;;;;;;19.10;13.10;;;9.70;75.60;;;9.37;59.86;95831.41;5073407;28;20562;-82
2021/11/10 09:43:06;;;;;;;16.95;12.63;;;9.70;75.60;;;9.42;59.99;95826.50;5068641;28;20670;-82
2021/11/10 09:45:36;;;;;;;20.05;13.30;;;9.80;75.70;;;9.51;59.72;95829.94;5061453;28;20270;-81
2021/11/10 09:48:08;;;;;;;17.17;12.55;;;9.80;75.60;;;9.59;59.70;95820.31;5046782;28;20247;-81
2021/11/10 09:50:43;;;;;;;15.52;12.00;;;9.80;75.70;;;9.67;59.66;95816.06;5067876;28;20195;-81
2021/11/10 09:53:10;;;;;;;15.07;11.65;;;9.90;75.70;;;9.78;59.96;95824.38;5047810;28;20253;-82
2021/11/10 09:55:38;;;;;;;16.25;12.40;;;10.00;74.60;;;9.88;59.50;95818.16;5047233;28;20287;-82
2021/11/10 09:58:05;;;;;;;14.43;11.05;;;10.10;74.60;;;9.94;60.09;95815.69;5062025;28;20212;-82
2021/11/10 10:00:43;;;;;;;14.18;11.00;;;10.10;74.70;;;10.06;59.50;95810.94;5072985;28;20607;-81
2021/11/10 10:03:11;;;;;;;15.95;12.48;;;10.20;74.70;;;10.15;59.57;95803.06;5072518;28;20590;-81
2021/11/10 10:05:44;;;;;;;16.65;12.35;;;10.30;74.80;;;10.23;59.46;95809.09;5072375;28;20615;-81
2021/11/10 10:08:14;;;;;;;17.10;12.38;;;10.30;74.80;;;10.29;59.24;95793.69;5072997;28;20721;-79
2021/11/10 10:10:43;;;;;;;16.85;12.43;;;10.50;75.00;;;10.44;59.34;95802.53;5072699;28;20199;-78
2021/11/10 10:13:11;;;;;;;20.02;12.63;;;10.60;75.00;;;10.53;59.08;95795.44;5073765;28;20198;-78
2021/11/10 10:15:41;;;;;;;16.02;11.73;;;10.60;74.90;;;10.59;58.94;95796.59;5073252;28;20616;-79
2021/11/10 10:18:17;;;;;;;13.63;11.50;;;10.70;74.50;;;10.65;58.47;95791.47;5057489;28;20297;-79
2021/11/10 10:20:46;;;;;;;14.75;11.32;;;10.80;74.40;;;10.73;58.86;95783.56;5073291;28;20248;-81
2021/11/10 10:23:18;;;;;;;16.38;11.15;;;10.90;74.60;;;10.85;58.94;95783.19;5073692;28;20205;-79
2021/11/10 10:25:49;;;;;;;13.02;10.80;;;11.00;74.70;;;10.96;58.66;95784.59;5066779;28;20226;-80
2021/11/10 10:28:23;;;;;;;15.10;10.43;;;11.00;74.20;;;11.03;58.51;95781.13;5036960;28;20245;-79
2021/11/10 10:31:04;;;;;;;13.43;10.27;;;11.10;74.00;;;11.21;58.44;95785.28;5069681;28;20203;-79